CFG1TK EDDF-LGKL
Flight info
| Callsign | CFG1TK |
|---|---|
| Flight time | 2h 22m |
| Altitude | 35000 |
| Route | CINDY8S/18 CINDY Z74 LAMPU DCT NOMBO Y161 MAH DCT VAVOR DCT RADIZ DCT MODRO DCT DARZA DCT DEPET DCT UNIPA DCT VAKSU DCT RODON DCT LIMJA DCT PITAS UN732 KRK/N0446F310 UM127 ARA UL612 TRL Y115 IPTAG |
| Aircraft | A321/M-SDE3FGIJ1LORVWXYZ/LB1 |
Departure
| Time | 2026-05-05 15:50 |
|---|---|
| Airport | Frankfurt Main Airport (EDDF) |
Arrival
| Time | 2026-05-05 18:13 |
|---|---|
| Airport | Kalamata Airport (LGKL) |
| Time | Latitude | Longitude | Altitude | Speed | Heading |
|---|---|---|---|---|---|
| 2026-05-05 15:05 | 50.04876 | 8.59049 | 369 ft | 0 kts | 340° |
| 2026-05-05 15:36 | 50.04864 | 8.59055 | 368 ft | 4 kts | 340° |
| 2026-05-05 15:36 | 50.04839 | 8.59069 | 367 ft | 4 kts | 340° |
| 2026-05-05 15:36 | 50.04814 | 8.59084 | 370 ft | 4 kts | 340° |
| 2026-05-05 15:36 | 50.04807 | 8.59088 | 369 ft | 0 kts | 340° |
| 2026-05-05 15:39 | 50.04807 | 8.59087 | 369 ft | 0 kts | 333° |
| 2026-05-05 15:40 | 50.04803 | 8.59063 | 372 ft | 6 kts | 252° |
| 2026-05-05 15:40 | 50.04774 | 8.58961 | 368 ft | 12 kts | 249° |
| 2026-05-05 15:40 | 50.04743 | 8.58835 | 368 ft | 12 kts | 256° |
| 2026-05-05 15:40 | 50.04780 | 8.58742 | 366 ft | 12 kts | 339° |
| 2026-05-05 15:41 | 50.04863 | 8.58698 | 365 ft | 13 kts | 339° |
| 2026-05-05 15:41 | 50.04932 | 8.58610 | 362 ft | 13 kts | 271° |
| 2026-05-05 15:41 | 50.04904 | 8.58479 | 359 ft | 12 kts | 249° |
| 2026-05-05 15:41 | 50.04868 | 8.58328 | 362 ft | 17 kts | 250° |
| 2026-05-05 15:42 | 50.04827 | 8.58160 | 362 ft | 16 kts | 250° |
| 2026-05-05 15:42 | 50.04784 | 8.57998 | 358 ft | 15 kts | 233° |
| 2026-05-05 15:42 | 50.04699 | 8.57873 | 361 ft | 20 kts | 237° |
| 2026-05-05 15:42 | 50.04651 | 8.57668 | 363 ft | 20 kts | 250° |
| 2026-05-05 15:43 | 50.04605 | 8.57470 | 361 ft | 20 kts | 250° |
| 2026-05-05 15:43 | 50.04559 | 8.57276 | 358 ft | 19 kts | 250° |
| 2026-05-05 15:43 | 50.04513 | 8.57090 | 364 ft | 21 kts | 249° |
| 2026-05-05 15:43 | 50.04463 | 8.56871 | 362 ft | 21 kts | 251° |
| 2026-05-05 15:44 | 50.04411 | 8.56659 | 364 ft | 21 kts | 249° |
| 2026-05-05 15:44 | 50.04361 | 8.56449 | 362 ft | 20 kts | 250° |
| 2026-05-05 15:44 | 50.04312 | 8.56244 | 361 ft | 21 kts | 249° |
| 2026-05-05 15:44 | 50.04255 | 8.56007 | 357 ft | 24 kts | 250° |
| 2026-05-05 15:45 | 50.04197 | 8.55762 | 358 ft | 24 kts | 249° |
| 2026-05-05 15:45 | 50.04139 | 8.55522 | 354 ft | 23 kts | 250° |
| 2026-05-05 15:45 | 50.04085 | 8.55293 | 358 ft | 21 kts | 249° |
| 2026-05-05 15:45 | 50.04037 | 8.55098 | 360 ft | 17 kts | 249° |
| 2026-05-05 15:46 | 50.03998 | 8.54937 | 358 ft | 15 kts | 250° |
| 2026-05-05 15:46 | 50.03962 | 8.54785 | 355 ft | 15 kts | 249° |
| 2026-05-05 15:46 | 50.03925 | 8.54627 | 354 ft | 17 kts | 250° |
| 2026-05-05 15:46 | 50.03885 | 8.54457 | 351 ft | 17 kts | 250° |
| 2026-05-05 15:47 | 50.03826 | 8.54296 | 352 ft | 17 kts | 235° |
| 2026-05-05 15:47 | 50.03791 | 8.54190 | 353 ft | 17 kts | 248° |
| 2026-05-05 15:47 | 50.03739 | 8.53970 | 344 ft | 16 kts | 250° |
| 2026-05-05 15:47 | 50.03701 | 8.53811 | 345 ft | 16 kts | 250° |
| 2026-05-05 15:48 | 50.03657 | 8.53624 | 345 ft | 21 kts | 248° |
| 2026-05-05 15:48 | 50.03602 | 8.53411 | 335 ft | 21 kts | 249° |
| 2026-05-05 15:48 | 50.03551 | 8.53201 | 339 ft | 21 kts | 249° |
| 2026-05-05 15:48 | 50.03502 | 8.52997 | 336 ft | 20 kts | 249° |
| 2026-05-05 15:49 | 50.03451 | 8.52797 | 335 ft | 20 kts | 246° |
| 2026-05-05 15:49 | 50.03395 | 8.52619 | 332 ft | 15 kts | 212° |
| 2026-05-05 15:49 | 50.03296 | 8.52594 | 332 ft | 16 kts | 179° |
| 2026-05-05 15:49 | 50.03104 | 8.52595 | 335 ft | 39 kts | 180° |
| 2026-05-05 15:50 | 50.02649 | 8.52602 | 334 ft | 96 kts | 179° |
| 2026-05-05 15:50 | 50.01798 | 8.52610 | 335 ft | 146 kts | 179° |
| 2026-05-05 15:50 | 50.00651 | 8.52617 | 434 ft | 175 kts | 179° |
| 2026-05-05 15:50 | 49.99447 | 8.52613 | 1043 ft | 173 kts | 180° |
| 2026-05-05 15:51 | 49.98245 | 8.52651 | 1604 ft | 175 kts | 173° |
| 2026-05-05 15:51 | 49.97074 | 8.53210 | 2144 ft | 181 kts | 154° |
| 2026-05-05 15:51 | 49.96040 | 8.54489 | 2301 ft | 201 kts | 131° |
| 2026-05-05 15:51 | 49.95281 | 8.56416 | 2420 ft | 220 kts | 120° |
| 2026-05-05 15:52 | 49.94515 | 8.58597 | 2747 ft | 235 kts | 115° |
| 2026-05-05 15:52 | 49.94046 | 8.61044 | 3345 ft | 244 kts | 97° |
| 2026-05-05 15:52 | 49.93924 | 8.63789 | 3631 ft | 265 kts | 93° |
| 2026-05-05 15:52 | 49.93769 | 8.66666 | 4265 ft | 271 kts | 102° |
| 2026-05-05 15:53 | 49.93108 | 8.69391 | 4974 ft | 274 kts | 122° |
| 2026-05-05 15:53 | 49.91849 | 8.71654 | 5683 ft | 276 kts | 143° |
| 2026-05-05 15:53 | 49.90282 | 8.73389 | 6409 ft | 278 kts | 146° |
| 2026-05-05 15:53 | 49.88774 | 8.75288 | 7107 ft | 282 kts | 134° |
| 2026-05-05 15:54 | 49.87608 | 8.77749 | 7779 ft | 286 kts | 119° |
| 2026-05-05 15:54 | 49.86645 | 8.80463 | 8473 ft | 288 kts | 119° |
| 2026-05-05 15:54 | 49.85668 | 8.83187 | 9146 ft | 291 kts | 120° |
| 2026-05-05 15:54 | 49.84672 | 8.85937 | 9811 ft | 294 kts | 120° |
| 2026-05-05 15:55 | 49.83661 | 8.88717 | 10384 ft | 301 kts | 120° |
| 2026-05-05 15:55 | 49.82594 | 8.91642 | 10521 ft | 323 kts | 120° |
| 2026-05-05 15:55 | 49.81453 | 8.94770 | 10641 ft | 344 kts | 120° |
| 2026-05-05 15:55 | 49.80243 | 8.98086 | 10855 ft | 360 kts | 120° |
| 2026-05-05 15:56 | 49.78998 | 9.01493 | 11345 ft | 367 kts | 120° |
| 2026-05-05 15:56 | 49.77737 | 9.04944 | 11941 ft | 370 kts | 120° |
| 2026-05-05 15:56 | 49.76525 | 9.08474 | 12540 ft | 374 kts | 114° |
| 2026-05-05 15:56 | 49.75702 | 9.12307 | 13121 ft | 377 kts | 103° |
| 2026-05-05 15:57 | 49.74986 | 9.16221 | 13683 ft | 380 kts | 111° |
| 2026-05-05 15:57 | 49.73812 | 9.19890 | 14240 ft | 383 kts | 122° |
| 2026-05-05 15:57 | 49.72787 | 9.22110 | 14602 ft | 384 kts | 130° |
| 2026-05-05 15:57 | 49.71022 | 9.25235 | 15149 ft | 387 kts | 132° |
| 2026-05-05 15:58 | 49.69235 | 9.28370 | 15685 ft | 390 kts | 131° |
| 2026-05-05 15:58 | 49.67438 | 9.31534 | 16201 ft | 393 kts | 131° |
| 2026-05-05 15:58 | 49.65635 | 9.34720 | 16701 ft | 396 kts | 131° |
| 2026-05-05 15:58 | 49.63815 | 9.37932 | 17185 ft | 399 kts | 131° |
| 2026-05-05 15:59 | 49.61871 | 9.40993 | 17635 ft | 401 kts | 140° |
| 2026-05-05 15:59 | 49.59604 | 9.43508 | 18093 ft | 403 kts | 149° |
| 2026-05-05 15:59 | 49.57183 | 9.45722 | 18538 ft | 406 kts | 150° |
| 2026-05-05 15:59 | 49.54747 | 9.47940 | 18986 ft | 408 kts | 150° |
| 2026-05-05 16:00 | 49.52296 | 9.50171 | 19419 ft | 411 kts | 150° |
| 2026-05-05 16:00 | 49.49828 | 9.52426 | 19841 ft | 413 kts | 150° |
| 2026-05-05 16:00 | 49.47350 | 9.54690 | 20256 ft | 416 kts | 150° |
| 2026-05-05 16:00 | 49.44854 | 9.56967 | 20665 ft | 418 kts | 150° |
| 2026-05-05 16:01 | 49.42345 | 9.59250 | 21054 ft | 421 kts | 150° |
| 2026-05-05 16:01 | 49.39847 | 9.61518 | 21428 ft | 423 kts | 150° |
| 2026-05-05 16:01 | 49.37274 | 9.63849 | 21827 ft | 426 kts | 150° |
| 2026-05-05 16:01 | 49.34775 | 9.66204 | 22187 ft | 428 kts | 145° |
| 2026-05-05 16:02 | 49.32449 | 9.69170 | 22559 ft | 431 kts | 135° |
| 2026-05-05 16:02 | 49.30324 | 9.72447 | 22924 ft | 434 kts | 135° |
| 2026-05-05 16:02 | 49.28218 | 9.75683 | 23264 ft | 436 kts | 135° |
| 2026-05-05 16:02 | 49.26067 | 9.78966 | 23631 ft | 438 kts | 135° |
| 2026-05-05 16:03 | 49.23901 | 9.82260 | 23976 ft | 440 kts | 135° |
| 2026-05-05 16:03 | 49.21718 | 9.85570 | 24297 ft | 443 kts | 135° |
| 2026-05-05 16:03 | 49.19524 | 9.88893 | 24626 ft | 445 kts | 135° |
| 2026-05-05 16:03 | 49.17322 | 9.92228 | 24948 ft | 447 kts | 135° |
| 2026-05-05 16:04 | 49.15111 | 9.95580 | 25254 ft | 449 kts | 135° |
| 2026-05-05 16:04 | 49.12887 | 9.98949 | 25563 ft | 451 kts | 135° |
| 2026-05-05 16:04 | 49.10652 | 10.02329 | 25861 ft | 453 kts | 136° |
| 2026-05-05 16:04 | 49.08407 | 10.05713 | 26152 ft | 455 kts | 136° |
| 2026-05-05 16:05 | 49.06149 | 10.09111 | 26441 ft | 457 kts | 136° |
| 2026-05-05 16:05 | 49.03855 | 10.12484 | 26720 ft | 459 kts | 137° |
| 2026-05-05 16:05 | 49.01518 | 10.15817 | 26991 ft | 461 kts | 137° |
| 2026-05-05 16:05 | 48.99154 | 10.19123 | 27251 ft | 463 kts | 138° |
| 2026-05-05 16:06 | 48.96777 | 10.22427 | 27503 ft | 464 kts | 138° |
| 2026-05-05 16:06 | 48.94384 | 10.25758 | 27759 ft | 466 kts | 138° |
| 2026-05-05 16:06 | 48.91996 | 10.29102 | 28014 ft | 468 kts | 137° |
| 2026-05-05 16:06 | 48.89605 | 10.32469 | 28263 ft | 470 kts | 137° |
| 2026-05-05 16:07 | 48.87203 | 10.35854 | 28507 ft | 472 kts | 137° |
| 2026-05-05 16:07 | 48.84794 | 10.39244 | 28749 ft | 473 kts | 137° |
| 2026-05-05 16:07 | 48.82386 | 10.42657 | 29042 ft | 473 kts | 136° |
| 2026-05-05 16:07 | 48.80051 | 10.46169 | 29369 ft | 472 kts | 134° |
| 2026-05-05 16:08 | 48.77795 | 10.49763 | 29677 ft | 471 kts | 133° |
| 2026-05-05 16:08 | 48.75569 | 10.53425 | 29981 ft | 471 kts | 133° |
| 2026-05-05 16:08 | 48.73360 | 10.57088 | 30279 ft | 470 kts | 133° |
| 2026-05-05 16:08 | 48.71150 | 10.60726 | 30569 ft | 470 kts | 133° |
| 2026-05-05 16:09 | 48.68919 | 10.64340 | 30859 ft | 469 kts | 134° |
| 2026-05-05 16:09 | 48.66678 | 10.67921 | 31164 ft | 468 kts | 134° |
| 2026-05-05 16:09 | 48.64428 | 10.71476 | 31451 ft | 468 kts | 134° |
| 2026-05-05 16:09 | 48.62174 | 10.75023 | 31730 ft | 467 kts | 134° |
| 2026-05-05 16:10 | 48.59928 | 10.78558 | 32017 ft | 467 kts | 134° |
| 2026-05-05 16:10 | 48.57681 | 10.82107 | 32300 ft | 466 kts | 134° |
| 2026-05-05 16:10 | 48.55454 | 10.85659 | 32580 ft | 466 kts | 134° |
| 2026-05-05 16:10 | 48.53235 | 10.89212 | 32857 ft | 465 kts | 134° |
| 2026-05-05 16:11 | 48.51020 | 10.92764 | 33122 ft | 465 kts | 134° |
| 2026-05-05 16:11 | 48.44353 | 11.03329 | 33907 ft | 463 kts | 134° |
| 2026-05-05 16:12 | 48.42113 | 11.06803 | 34154 ft | 462 kts | 134° |
| 2026-05-05 16:12 | 48.37628 | 11.13728 | 34640 ft | 461 kts | 135° |
| 2026-05-05 16:13 | 48.30930 | 11.24088 | 35111 ft | 459 kts | 134° |
| 2026-05-05 16:13 | 48.26584 | 11.31092 | 35109 ft | 458 kts | 127° |
| 2026-05-05 16:14 | 48.20084 | 11.47442 | 35110 ft | 458 kts | 120° |
| 2026-05-05 16:15 | 48.13672 | 11.63941 | 35109 ft | 458 kts | 120° |
| 2026-05-05 16:16 | 48.07219 | 11.80459 | 35110 ft | 458 kts | 121° |
| 2026-05-05 16:17 | 48.02380 | 11.92777 | 35112 ft | 458 kts | 121° |
| 2026-05-05 16:18 | 47.97525 | 12.05090 | 35113 ft | 458 kts | 121° |
| 2026-05-05 16:19 | 47.92259 | 12.16722 | 35110 ft | 457 kts | 135° |
| 2026-05-05 16:19 | 47.85101 | 12.25876 | 35110 ft | 457 kts | 140° |
| 2026-05-05 16:20 | 47.76427 | 12.36733 | 35110 ft | 457 kts | 140° |
| 2026-05-05 16:22 | 47.64229 | 12.51875 | 35113 ft | 458 kts | 140° |
| 2026-05-05 16:23 | 47.54405 | 12.63860 | 35113 ft | 457 kts | 141° |
| 2026-05-05 16:23 | 47.46999 | 12.72753 | 35110 ft | 457 kts | 141° |
| 2026-05-05 16:24 | 47.42075 | 12.78686 | 35112 ft | 457 kts | 141° |
| 2026-05-05 16:25 | 47.34665 | 12.87581 | 35117 ft | 458 kts | 141° |
| 2026-05-05 16:25 | 47.27242 | 12.96446 | 35119 ft | 458 kts | 141° |
| 2026-05-05 16:26 | 47.17343 | 13.08227 | 35119 ft | 458 kts | 141° |
| 2026-05-05 16:27 | 47.12386 | 13.14108 | 35121 ft | 458 kts | 141° |
| 2026-05-05 16:27 | 47.07426 | 13.19971 | 35120 ft | 458 kts | 141° |
| 2026-05-05 16:28 | 47.02465 | 13.25815 | 35119 ft | 458 kts | 141° |
| 2026-05-05 16:28 | 46.97498 | 13.31662 | 35120 ft | 457 kts | 142° |
| 2026-05-05 16:29 | 46.92538 | 13.37484 | 35118 ft | 457 kts | 142° |
| 2026-05-05 16:29 | 46.87567 | 13.43301 | 35117 ft | 457 kts | 142° |
| 2026-05-05 16:30 | 46.82602 | 13.49101 | 35116 ft | 457 kts | 142° |
| 2026-05-05 16:30 | 46.77630 | 13.54887 | 35115 ft | 457 kts | 142° |
| 2026-05-05 16:31 | 46.72653 | 13.60665 | 35113 ft | 457 kts | 142° |
| 2026-05-05 16:31 | 46.67681 | 13.66431 | 35113 ft | 457 kts | 142° |
| 2026-05-05 16:32 | 46.62701 | 13.72194 | 35113 ft | 457 kts | 142° |
| 2026-05-05 16:32 | 46.57718 | 13.77946 | 35116 ft | 458 kts | 142° |
| 2026-05-05 16:33 | 46.52726 | 13.83688 | 35117 ft | 457 kts | 142° |
| 2026-05-05 16:33 | 46.47770 | 13.89384 | 35116 ft | 457 kts | 142° |
| 2026-05-05 16:34 | 46.42781 | 13.95094 | 35112 ft | 457 kts | 142° |
| 2026-05-05 16:34 | 46.37795 | 14.00799 | 35111 ft | 457 kts | 142° |
| 2026-05-05 16:35 | 46.32797 | 14.06500 | 35112 ft | 457 kts | 142° |
| 2026-05-05 16:35 | 46.27796 | 14.12182 | 35114 ft | 457 kts | 142° |
| 2026-05-05 16:36 | 46.22790 | 14.17863 | 35114 ft | 457 kts | 142° |
| 2026-05-05 16:36 | 46.17788 | 14.23528 | 35113 ft | 457 kts | 142° |
| 2026-05-05 16:37 | 46.12784 | 14.29179 | 35112 ft | 457 kts | 142° |
| 2026-05-05 16:37 | 46.07777 | 14.34814 | 35109 ft | 457 kts | 142° |
| 2026-05-05 16:38 | 46.02769 | 14.40457 | 35110 ft | 457 kts | 142° |
| 2026-05-05 16:38 | 45.97792 | 14.46166 | 35113 ft | 457 kts | 142° |
| 2026-05-05 16:39 | 45.92823 | 14.51875 | 35115 ft | 457 kts | 142° |
| 2026-05-05 16:39 | 45.87840 | 14.57548 | 35115 ft | 457 kts | 142° |
| 2026-05-05 16:40 | 45.82852 | 14.63206 | 35112 ft | 457 kts | 142° |
| 2026-05-05 16:40 | 45.77866 | 14.68854 | 35111 ft | 457 kts | 142° |
| 2026-05-05 16:41 | 45.72873 | 14.74488 | 35112 ft | 457 kts | 142° |
| 2026-05-05 16:41 | 45.67882 | 14.80105 | 35110 ft | 457 kts | 142° |
| 2026-05-05 16:42 | 45.62881 | 14.85724 | 35110 ft | 457 kts | 142° |
| 2026-05-05 16:42 | 45.58728 | 14.90387 | 35112 ft | 457 kts | 142° |
| 2026-05-05 16:43 | 45.53726 | 14.95996 | 35113 ft | 457 kts | 142° |
| 2026-05-05 16:43 | 45.47913 | 15.02510 | 35116 ft | 457 kts | 141° |
| 2026-05-05 16:44 | 45.43025 | 15.08324 | 35118 ft | 458 kts | 140° |
| 2026-05-05 16:44 | 45.38983 | 15.13273 | 35119 ft | 458 kts | 140° |
| 2026-05-05 16:45 | 45.34137 | 15.19151 | 35119 ft | 458 kts | 140° |
| 2026-05-05 16:45 | 45.29285 | 15.24931 | 35123 ft | 458 kts | 140° |
| 2026-05-05 16:46 | 45.24388 | 15.30724 | 35123 ft | 458 kts | 141° |
| 2026-05-05 16:46 | 45.19502 | 15.36516 | 35124 ft | 458 kts | 140° |
| 2026-05-05 16:47 | 45.14612 | 15.42313 | 35123 ft | 458 kts | 140° |
| 2026-05-05 16:47 | 45.09721 | 15.48089 | 35125 ft | 458 kts | 141° |
| 2026-05-05 16:48 | 45.04819 | 15.53850 | 35123 ft | 458 kts | 141° |
| 2026-05-05 16:48 | 44.99929 | 15.59605 | 35124 ft | 457 kts | 141° |
| 2026-05-05 16:49 | 44.95035 | 15.65350 | 35122 ft | 457 kts | 141° |
| 2026-05-05 16:49 | 44.90138 | 15.71081 | 35121 ft | 457 kts | 141° |
| 2026-05-05 16:50 | 44.85240 | 15.76800 | 35120 ft | 457 kts | 141° |
| 2026-05-05 16:50 | 44.80334 | 15.82505 | 35119 ft | 457 kts | 141° |
| 2026-05-05 16:51 | 44.75436 | 15.88201 | 35116 ft | 457 kts | 141° |
| 2026-05-05 16:51 | 44.70536 | 15.93877 | 35113 ft | 457 kts | 141° |
| 2026-05-05 16:52 | 44.65353 | 15.98988 | 35110 ft | 455 kts | 151° |
| 2026-05-05 16:52 | 44.59835 | 16.03383 | 35108 ft | 456 kts | 151° |
| 2026-05-05 16:53 | 44.54323 | 16.07776 | 35107 ft | 456 kts | 151° |
| 2026-05-05 16:53 | 44.48813 | 16.12173 | 35107 ft | 456 kts | 151° |
| 2026-05-05 16:54 | 44.43298 | 16.16553 | 35109 ft | 456 kts | 151° |
| 2026-05-05 16:54 | 44.37777 | 16.20919 | 35107 ft | 456 kts | 151° |
| 2026-05-05 16:55 | 44.32260 | 16.25278 | 35107 ft | 456 kts | 151° |
| 2026-05-05 16:55 | 44.26771 | 16.29603 | 35108 ft | 456 kts | 151° |
| 2026-05-05 16:56 | 44.21245 | 16.33950 | 35108 ft | 456 kts | 151° |
| 2026-05-05 16:56 | 44.15720 | 16.38287 | 35112 ft | 456 kts | 151° |
| 2026-05-05 16:57 | 44.10177 | 16.42622 | 35114 ft | 456 kts | 151° |
| 2026-05-05 16:57 | 44.04645 | 16.46949 | 35116 ft | 456 kts | 151° |
| 2026-05-05 16:58 | 43.99438 | 16.51972 | 35115 ft | 456 kts | 143° |
| 2026-05-05 16:58 | 43.94386 | 16.57314 | 35113 ft | 456 kts | 143° |
| 2026-05-05 16:59 | 43.89330 | 16.62649 | 35112 ft | 457 kts | 143° |
| 2026-05-05 16:59 | 43.84274 | 16.67967 | 35113 ft | 457 kts | 143° |
| 2026-05-05 17:00 | 43.79203 | 16.73276 | 35115 ft | 457 kts | 143° |
| 2026-05-05 17:00 | 43.74129 | 16.78572 | 35116 ft | 457 kts | 143° |
| 2026-05-05 17:01 | 43.69058 | 16.83869 | 35116 ft | 457 kts | 143° |
| 2026-05-05 17:01 | 43.63992 | 16.89144 | 35114 ft | 456 kts | 143° |
| 2026-05-05 17:02 | 43.58918 | 16.94407 | 35111 ft | 456 kts | 143° |
| 2026-05-05 17:02 | 43.53849 | 16.99673 | 35111 ft | 456 kts | 143° |
| 2026-05-05 17:03 | 43.48773 | 17.04930 | 35112 ft | 457 kts | 143° |
| 2026-05-05 17:03 | 43.43691 | 17.10178 | 35112 ft | 456 kts | 143° |
| 2026-05-05 17:04 | 43.38611 | 17.15413 | 35112 ft | 456 kts | 143° |
| 2026-05-05 17:04 | 43.33524 | 17.20645 | 35114 ft | 457 kts | 143° |
| 2026-05-05 17:05 | 43.28833 | 17.25458 | 35115 ft | 457 kts | 143° |
| 2026-05-05 17:05 | 43.23738 | 17.30674 | 35119 ft | 457 kts | 143° |
| 2026-05-05 17:06 | 43.18639 | 17.35888 | 35121 ft | 457 kts | 143° |
| 2026-05-05 17:06 | 43.13537 | 17.41094 | 35121 ft | 457 kts | 143° |
| 2026-05-05 17:07 | 43.08471 | 17.46247 | 35120 ft | 457 kts | 144° |
| 2026-05-05 17:07 | 43.03374 | 17.51417 | 35119 ft | 457 kts | 144° |
| 2026-05-05 17:08 | 42.98271 | 17.56592 | 35119 ft | 457 kts | 144° |
| 2026-05-05 17:08 | 42.93162 | 17.61759 | 35119 ft | 457 kts | 144° |
| 2026-05-05 17:09 | 42.88052 | 17.66915 | 35120 ft | 457 kts | 144° |
| 2026-05-05 17:09 | 42.82941 | 17.72063 | 35120 ft | 457 kts | 144° |
| 2026-05-05 17:10 | 42.77832 | 17.77192 | 35119 ft | 457 kts | 144° |
| 2026-05-05 17:10 | 42.72715 | 17.82315 | 35118 ft | 457 kts | 144° |
| 2026-05-05 17:11 | 42.67594 | 17.87434 | 35117 ft | 456 kts | 144° |
| 2026-05-05 17:11 | 42.62478 | 17.92538 | 35117 ft | 457 kts | 144° |
| 2026-05-05 17:12 | 42.57358 | 17.97648 | 35116 ft | 457 kts | 144° |
| 2026-05-05 17:12 | 42.52167 | 18.02810 | 35111 ft | 469 kts | 144° |
| 2026-05-05 17:13 | 42.47051 | 18.07882 | 35109 ft | 474 kts | 144° |
| 2026-05-05 17:13 | 42.41825 | 18.13059 | 35109 ft | 475 kts | 144° |
| 2026-05-05 17:14 | 42.36515 | 18.18306 | 35109 ft | 475 kts | 144° |
| 2026-05-05 17:14 | 42.31176 | 18.23567 | 35111 ft | 475 kts | 144° |
| 2026-05-05 17:15 | 42.25837 | 18.28815 | 35117 ft | 476 kts | 144° |
| 2026-05-05 17:15 | 42.20485 | 18.34068 | 35119 ft | 476 kts | 144° |
| 2026-05-05 17:16 | 42.15127 | 18.39314 | 35125 ft | 476 kts | 144° |
| 2026-05-05 17:16 | 42.09767 | 18.44561 | 35126 ft | 476 kts | 144° |
| 2026-05-05 17:17 | 42.04401 | 18.49793 | 35124 ft | 476 kts | 144° |
| 2026-05-05 17:17 | 41.99055 | 18.55033 | 35125 ft | 476 kts | 143° |
| 2026-05-05 17:18 | 41.93824 | 18.60481 | 35123 ft | 476 kts | 142° |
| 2026-05-05 17:18 | 41.88628 | 18.65994 | 35124 ft | 475 kts | 142° |
| 2026-05-05 17:19 | 41.83411 | 18.71437 | 35125 ft | 476 kts | 143° |
| 2026-05-05 17:19 | 41.78196 | 18.76809 | 35126 ft | 476 kts | 143° |
| 2026-05-05 17:20 | 41.72939 | 18.82207 | 35127 ft | 476 kts | 143° |
| 2026-05-05 17:20 | 41.67692 | 18.87611 | 35127 ft | 476 kts | 143° |
| 2026-05-05 17:21 | 41.62442 | 18.93003 | 35126 ft | 476 kts | 143° |
| 2026-05-05 17:22 | 41.54570 | 19.01080 | 35121 ft | 476 kts | 143° |
| 2026-05-05 17:22 | 41.49318 | 19.06440 | 35123 ft | 475 kts | 143° |
| 2026-05-05 17:23 | 41.43707 | 19.11032 | 35118 ft | 474 kts | 159° |
| 2026-05-05 17:23 | 41.37528 | 19.14062 | 35119 ft | 473 kts | 160° |
| 2026-05-05 17:24 | 41.31338 | 19.17076 | 35118 ft | 474 kts | 160° |
| 2026-05-05 17:24 | 41.25150 | 19.20098 | 35119 ft | 474 kts | 160° |
| 2026-05-05 17:25 | 41.18959 | 19.23123 | 35119 ft | 474 kts | 160° |
| 2026-05-05 17:25 | 41.12758 | 19.26128 | 35121 ft | 474 kts | 160° |
| 2026-05-05 17:26 | 41.06599 | 19.29106 | 35119 ft | 474 kts | 160° |
| 2026-05-05 17:26 | 41.00395 | 19.32104 | 35124 ft | 475 kts | 160° |
| 2026-05-05 17:27 | 40.94189 | 19.35105 | 35125 ft | 475 kts | 160° |
| 2026-05-05 17:27 | 40.87980 | 19.38098 | 35131 ft | 475 kts | 160° |
| 2026-05-05 17:28 | 40.81766 | 19.41081 | 35131 ft | 475 kts | 160° |
| 2026-05-05 17:28 | 40.75548 | 19.44062 | 35130 ft | 475 kts | 160° |
| 2026-05-05 17:29 | 40.69334 | 19.47031 | 35129 ft | 475 kts | 160° |
| 2026-05-05 17:29 | 40.63125 | 19.49995 | 35128 ft | 475 kts | 160° |
| 2026-05-05 17:30 | 40.56910 | 19.52961 | 35128 ft | 475 kts | 160° |
| 2026-05-05 17:30 | 40.50699 | 19.55918 | 35129 ft | 475 kts | 160° |
| 2026-05-05 17:31 | 40.44522 | 19.58846 | 35128 ft | 475 kts | 161° |
| 2026-05-05 17:31 | 40.38312 | 19.61777 | 35122 ft | 474 kts | 161° |
| 2026-05-05 17:32 | 40.32107 | 19.64711 | 35121 ft | 474 kts | 161° |
| 2026-05-05 17:32 | 40.25906 | 19.67638 | 35121 ft | 474 kts | 161° |
| 2026-05-05 17:33 | 40.19699 | 19.70558 | 35122 ft | 474 kts | 161° |
| 2026-05-05 17:33 | 40.14542 | 19.72972 | 35122 ft | 474 kts | 161° |
| 2026-05-05 17:34 | 40.08331 | 19.75887 | 35118 ft | 474 kts | 161° |
| 2026-05-05 17:34 | 40.02126 | 19.78790 | 35118 ft | 474 kts | 161° |
| 2026-05-05 17:35 | 39.95917 | 19.81682 | 35118 ft | 474 kts | 161° |
| 2026-05-05 17:35 | 39.92899 | 19.83377 | 35111 ft | 474 kts | 149° |
| 2026-05-05 17:35 | 39.90220 | 19.85876 | 35113 ft | 474 kts | 142° |
| 2026-05-05 17:36 | 39.85056 | 19.91227 | 35110 ft | 475 kts | 142° |
| 2026-05-05 17:36 | 39.79901 | 19.96599 | 35113 ft | 475 kts | 142° |
| 2026-05-05 17:37 | 39.74726 | 20.01963 | 35119 ft | 476 kts | 142° |
| 2026-05-05 17:37 | 39.69542 | 20.07310 | 35121 ft | 476 kts | 142° |
| 2026-05-05 17:38 | 39.64350 | 20.12655 | 35125 ft | 476 kts | 142° |
| 2026-05-05 17:38 | 39.59158 | 20.17994 | 35127 ft | 476 kts | 142° |
| 2026-05-05 17:39 | 39.53968 | 20.23326 | 35125 ft | 476 kts | 142° |
| 2026-05-05 17:39 | 39.48780 | 20.28645 | 35124 ft | 476 kts | 142° |
| 2026-05-05 17:40 | 39.43579 | 20.33960 | 35130 ft | 476 kts | 142° |
| 2026-05-05 17:40 | 39.38373 | 20.39276 | 35126 ft | 477 kts | 142° |
| 2026-05-05 17:41 | 39.33168 | 20.44581 | 35133 ft | 477 kts | 142° |
| 2026-05-05 17:41 | 39.27954 | 20.49879 | 35130 ft | 477 kts | 142° |
| 2026-05-05 17:42 | 39.22745 | 20.55162 | 35128 ft | 477 kts | 142° |
| 2026-05-05 17:42 | 39.17526 | 20.60442 | 35133 ft | 476 kts | 142° |
| 2026-05-05 17:43 | 39.12317 | 20.65705 | 35128 ft | 476 kts | 142° |
| 2026-05-05 17:43 | 39.07101 | 20.70975 | 35125 ft | 476 kts | 142° |
| 2026-05-05 17:44 | 39.01923 | 20.76193 | 35128 ft | 476 kts | 142° |
| 2026-05-05 17:44 | 38.96705 | 20.81429 | 35126 ft | 476 kts | 142° |
| 2026-05-05 17:45 | 38.91446 | 20.86696 | 35125 ft | 476 kts | 142° |
| 2026-05-05 17:45 | 38.86263 | 20.91887 | 35124 ft | 476 kts | 142° |
| 2026-05-05 17:46 | 38.81047 | 20.97110 | 35121 ft | 476 kts | 142° |
| 2026-05-05 17:46 | 38.75823 | 21.02316 | 35121 ft | 475 kts | 142° |
| 2026-05-05 17:47 | 38.70600 | 21.07505 | 35120 ft | 475 kts | 142° |
| 2026-05-05 17:47 | 38.65380 | 21.12688 | 35121 ft | 475 kts | 142° |
| 2026-05-05 17:48 | 38.60154 | 21.17874 | 35121 ft | 475 kts | 142° |
| 2026-05-05 17:48 | 38.54924 | 21.23051 | 35121 ft | 476 kts | 142° |
| 2026-05-05 17:49 | 38.49696 | 21.28224 | 35121 ft | 476 kts | 142° |
| 2026-05-05 17:49 | 38.44462 | 21.33383 | 35121 ft | 475 kts | 143° |
| 2026-05-05 17:50 | 38.39219 | 21.38532 | 35121 ft | 475 kts | 143° |
| 2026-05-05 17:50 | 38.33982 | 21.43671 | 35120 ft | 475 kts | 143° |
| 2026-05-05 17:51 | 38.28902 | 21.48657 | 35119 ft | 475 kts | 143° |
| 2026-05-05 17:51 | 38.23696 | 21.53743 | 35118 ft | 475 kts | 143° |
| 2026-05-05 17:52 | 38.18422 | 21.58892 | 35118 ft | 475 kts | 143° |
| 2026-05-05 17:52 | 38.13216 | 21.63983 | 35118 ft | 475 kts | 143° |
| 2026-05-05 17:53 | 38.08071 | 21.69003 | 34590 ft | 459 kts | 143° |
| 2026-05-05 17:53 | 38.05533 | 21.71466 | 33804 ft | 462 kts | 143° |
| 2026-05-05 17:53 | 38.02978 | 21.73939 | 33142 ft | 462 kts | 143° |
| 2026-05-05 17:53 | 38.00429 | 21.76406 | 32586 ft | 459 kts | 143° |
| 2026-05-05 17:54 | 37.97901 | 21.78856 | 32060 ft | 456 kts | 143° |
| 2026-05-05 17:54 | 37.95391 | 21.81288 | 31536 ft | 452 kts | 143° |
| 2026-05-05 17:54 | 37.92907 | 21.83694 | 30932 ft | 445 kts | 143° |
| 2026-05-05 17:54 | 37.90431 | 21.86089 | 29566 ft | 455 kts | 143° |
| 2026-05-05 17:55 | 37.87903 | 21.88529 | 28725 ft | 459 kts | 143° |
| 2026-05-05 17:55 | 37.85367 | 21.90975 | 28070 ft | 456 kts | 143° |
| 2026-05-05 17:55 | 37.82859 | 21.93395 | 27496 ft | 452 kts | 143° |
| 2026-05-05 17:55 | 37.80382 | 21.95787 | 27036 ft | 445 kts | 143° |
| 2026-05-05 17:56 | 37.77930 | 21.98156 | 26517 ft | 440 kts | 143° |
| 2026-05-05 17:56 | 37.75509 | 22.00488 | 25965 ft | 436 kts | 143° |
| 2026-05-05 17:56 | 37.73104 | 22.02797 | 25411 ft | 432 kts | 143° |
| 2026-05-05 17:56 | 37.70721 | 22.05079 | 24865 ft | 428 kts | 143° |
| 2026-05-05 17:57 | 37.68355 | 22.07342 | 24299 ft | 425 kts | 143° |
| 2026-05-05 17:57 | 37.65961 | 22.09473 | 23653 ft | 418 kts | 152° |
| 2026-05-05 17:57 | 37.63268 | 22.10789 | 23067 ft | 414 kts | 168° |
| 2026-05-05 17:57 | 37.60427 | 22.11128 | 22503 ft | 409 kts | 184° |
| 2026-05-05 17:58 | 37.57616 | 22.10733 | 21921 ft | 405 kts | 188° |
| 2026-05-05 17:58 | 37.54833 | 22.10278 | 21357 ft | 402 kts | 188° |
| 2026-05-05 17:58 | 37.52066 | 22.09817 | 20790 ft | 399 kts | 188° |
| 2026-05-05 17:58 | 37.49340 | 22.09363 | 20254 ft | 396 kts | 188° |
| 2026-05-05 17:59 | 37.46656 | 22.08920 | 19651 ft | 391 kts | 188° |
| 2026-05-05 17:59 | 37.43973 | 22.08480 | 18963 ft | 388 kts | 188° |
| 2026-05-05 17:59 | 37.41308 | 22.08045 | 18290 ft | 384 kts | 188° |
| 2026-05-05 17:59 | 37.38676 | 22.07615 | 17628 ft | 380 kts | 188° |
| 2026-05-05 18:00 | 37.36065 | 22.07187 | 16962 ft | 376 kts | 188° |
| 2026-05-05 18:00 | 37.33479 | 22.06763 | 16332 ft | 373 kts | 188° |
| 2026-05-05 18:00 | 37.30923 | 22.06343 | 15703 ft | 369 kts | 188° |
| 2026-05-05 18:00 | 37.28382 | 22.05928 | 15066 ft | 366 kts | 188° |
| 2026-05-05 18:01 | 37.25878 | 22.05458 | 14445 ft | 362 kts | 190° |
| 2026-05-05 18:01 | 37.23403 | 22.04949 | 13821 ft | 359 kts | 190° |
| 2026-05-05 18:01 | 37.20949 | 22.04441 | 13214 ft | 356 kts | 190° |
| 2026-05-05 18:01 | 37.18521 | 22.03938 | 12590 ft | 352 kts | 190° |
| 2026-05-05 18:02 | 37.16110 | 22.03440 | 11967 ft | 349 kts | 190° |
| 2026-05-05 18:02 | 37.13727 | 22.02949 | 11356 ft | 346 kts | 190° |
| 2026-05-05 18:02 | 37.11357 | 22.02461 | 10739 ft | 343 kts | 190° |
| 2026-05-05 18:02 | 37.09017 | 22.01980 | 10242 ft | 337 kts | 190° |
| 2026-05-05 18:03 | 37.06765 | 22.01518 | 10092 ft | 319 kts | 190° |
| 2026-05-05 18:03 | 37.04645 | 22.01086 | 10103 ft | 299 kts | 190° |
| 2026-05-05 18:03 | 37.02621 | 22.00676 | 10107 ft | 292 kts | 190° |
| 2026-05-05 18:03 | 37.00635 | 22.00275 | 9764 ft | 288 kts | 190° |
| 2026-05-05 18:04 | 36.98663 | 21.99877 | 9288 ft | 286 kts | 190° |
| 2026-05-05 18:04 | 36.96703 | 21.99481 | 8813 ft | 284 kts | 190° |
| 2026-05-05 18:04 | 36.94759 | 21.99090 | 8352 ft | 282 kts | 190° |
| 2026-05-05 18:04 | 36.92851 | 21.98706 | 8080 ft | 269 kts | 190° |
| 2026-05-05 18:05 | 36.91047 | 21.98346 | 7607 ft | 258 kts | 190° |
| 2026-05-05 18:05 | 36.89285 | 21.97996 | 6994 ft | 255 kts | 190° |
| 2026-05-05 18:05 | 36.87546 | 21.97651 | 6381 ft | 252 kts | 190° |
| 2026-05-05 18:05 | 36.85819 | 21.97308 | 5759 ft | 250 kts | 190° |
| 2026-05-05 18:06 | 36.84105 | 21.97045 | 5132 ft | 248 kts | 178° |
| 2026-05-05 18:06 | 36.82993 | 21.97312 | 4733 ft | 246 kts | 161° |
| 2026-05-05 18:06 | 36.80909 | 21.98491 | 3879 ft | 246 kts | 145° |
| 2026-05-05 18:06 | 36.79812 | 22.00076 | 3293 ft | 243 kts | 113° |
| 2026-05-05 18:07 | 36.79494 | 22.02121 | 2678 ft | 242 kts | 88° |
| 2026-05-05 18:07 | 36.79837 | 22.04171 | 2242 ft | 243 kts | 66° |
| 2026-05-05 18:07 | 36.80757 | 22.05916 | 2034 ft | 240 kts | 45° |
| 2026-05-05 18:07 | 36.82113 | 22.07131 | 2001 ft | 242 kts | 24° |
| 2026-05-05 18:08 | 36.83705 | 22.07683 | 2007 ft | 242 kts | 4° |
| 2026-05-05 18:08 | 36.85371 | 22.07537 | 2008 ft | 241 kts | 348° |
| 2026-05-05 18:08 | 36.87023 | 22.07150 | 2007 ft | 241 kts | 348° |
| 2026-05-05 18:08 | 36.88672 | 22.06766 | 2006 ft | 241 kts | 348° |
| 2026-05-05 18:09 | 36.90326 | 22.06382 | 2009 ft | 241 kts | 348° |
| 2026-05-05 18:09 | 36.91924 | 22.06012 | 1999 ft | 226 kts | 348° |
| 2026-05-05 18:09 | 36.93408 | 22.05667 | 2011 ft | 208 kts | 348° |
| 2026-05-05 18:09 | 36.94789 | 22.05347 | 2010 ft | 196 kts | 348° |
| 2026-05-05 18:10 | 36.96078 | 22.05047 | 1890 ft | 183 kts | 348° |
| 2026-05-05 18:10 | 36.97291 | 22.04765 | 1713 ft | 168 kts | 348° |
| 2026-05-05 18:10 | 36.98397 | 22.04507 | 1472 ft | 157 kts | 348° |
| 2026-05-05 18:10 | 36.99455 | 22.04261 | 1276 ft | 153 kts | 349° |
| 2026-05-05 18:11 | 37.00499 | 22.04026 | 1068 ft | 152 kts | 349° |
| 2026-05-05 18:11 | 37.01533 | 22.03793 | 871 ft | 151 kts | 349° |
| 2026-05-05 18:11 | 37.02560 | 22.03535 | 657 ft | 150 kts | 349° |
| 2026-05-05 18:11 | 37.03582 | 22.03294 | 479 ft | 149 kts | 350° |
| 2026-05-05 18:12 | 37.04600 | 22.03070 | 277 ft | 148 kts | 350° |
| 2026-05-05 18:12 | 37.05610 | 22.02828 | 86 ft | 147 kts | 349° |
| 2026-05-05 18:12 | 37.06570 | 22.02598 | 35 ft | 129 kts | 349° |
| 2026-05-05 18:12 | 37.07301 | 22.02434 | 32 ft | 89 kts | 350° |
| 2026-05-05 18:13 | 37.07758 | 22.02328 | 32 ft | 28 kts | 349° |
| 2026-05-05 18:13 | 37.07866 | 22.02304 | 34 ft | 14 kts | 360° |
| 2026-05-05 18:13 | 37.07900 | 22.02384 | 35 ft | 11 kts | 95° |
| 2026-05-05 18:13 | 37.07863 | 22.02431 | 34 ft | 7 kts | 169° |
| 2026-05-05 18:14 | 37.07818 | 22.02442 | 34 ft | 8 kts | 169° |
| 2026-05-05 18:14 | 37.07753 | 22.02457 | 34 ft | 10 kts | 170° |
| 2026-05-05 18:14 | 37.07691 | 22.02470 | 34 ft | 6 kts | 170° |
| 2026-05-05 18:14 | 37.07651 | 22.02479 | 34 ft | 6 kts | 170° |
| 2026-05-05 18:15 | 37.07614 | 22.02487 | 34 ft | 5 kts | 170° |
| 2026-05-05 18:15 | 37.07562 | 22.02498 | 33 ft | 12 kts | 169° |
| 2026-05-05 18:15 | 37.07461 | 22.02521 | 34 ft | 15 kts | 169° |
| 2026-05-05 18:15 | 37.07358 | 22.02545 | 34 ft | 15 kts | 169° |
| 2026-05-05 18:16 | 37.07252 | 22.02570 | 34 ft | 15 kts | 169° |
| 2026-05-05 18:16 | 37.07145 | 22.02595 | 34 ft | 17 kts | 169° |
| 2026-05-05 18:16 | 37.07025 | 22.02623 | 34 ft | 20 kts | 168° |
| 2026-05-05 18:16 | 37.06868 | 22.02661 | 34 ft | 23 kts | 169° |
| 2026-05-05 18:17 | 37.06717 | 22.02696 | 34 ft | 22 kts | 169° |
| 2026-05-05 18:17 | 37.06579 | 22.02728 | 33 ft | 19 kts | 169° |
| 2026-05-05 18:17 | 37.06449 | 22.02758 | 34 ft | 19 kts | 169° |
| 2026-05-05 18:17 | 37.06321 | 22.02787 | 34 ft | 19 kts | 170° |
| 2026-05-05 18:18 | 37.06195 | 22.02816 | 33 ft | 18 kts | 169° |
| 2026-05-05 18:18 | 37.06073 | 22.02844 | 34 ft | 18 kts | 169° |
| 2026-05-05 18:18 | 37.05918 | 22.02880 | 34 ft | 28 kts | 169° |
| 2026-05-05 18:18 | 37.05729 | 22.02925 | 34 ft | 27 kts | 169° |
| 2026-05-05 18:19 | 37.05572 | 22.02962 | 34 ft | 17 kts | 160° |
| 2026-05-05 18:19 | 37.05530 | 22.03085 | 35 ft | 15 kts | 104° |
| 2026-05-05 18:19 | 37.05497 | 22.03209 | 35 ft | 15 kts | 120° |
| 2026-05-05 18:19 | 37.05485 | 22.03260 | 35 ft | 3 kts | 92° |
| 2026-05-05 18:20 | 37.05485 | 22.03298 | 35 ft | 8 kts | 103° |
| 2026-05-05 18:20 | 37.05475 | 22.03328 | 35 ft | 4 kts | 118° |
| 2026-05-05 18:20 | 37.05464 | 22.03351 | 35 ft | 1 kts | 120° |
| 2026-05-05 18:20 | 37.05463 | 22.03353 | 35 ft | 0 kts | 120° |